Time;durP1;ratioP1;P1;durP2;ratioP2;P2;SDS_P1;SDS_P2;PMS_P1;PMS_P2;Temp;Humidity;BMP_temperature;BMP_pressure;BME280_temperature;BME280_humidity;BME280_pressure;Samples;Min_cycle;Max_cycle;Signal;HPM_P1;HPM_P2
2021/03/18 00:00:57;;;;;;;0.75;0.75;;;;;;;4.46;72.38;98086.63;5112993;28;20115;-86
2021/03/18 00:03:34;;;;;;;0.20;0.20;;;;;;;4.25;72.09;98065.00;5112987;28;20027;-87
2021/03/18 00:06:00;;;;;;;0.20;0.20;;;;;;;4.20;72.24;98062.72;5113280;28;20391;-87
2021/03/18 00:08:26;;;;;;;0.20;0.20;;;;;;;4.42;71.21;98080.41;5114090;28;20032;-86
2021/03/18 00:10:53;;;;;;;0.30;0.30;;;;;;;4.34;71.55;98087.91;5112823;28;20031;-86
2021/03/18 00:13:21;;;;;;;0.20;0.20;;;;;;;4.40;72.41;98080.06;5113715;28;20500;-87
2021/03/18 00:15:46;;;;;;;0.63;0.63;;;;;;;4.46;71.77;98094.84;5112798;28;20580;-85
2021/03/18 00:18:14;;;;;;;0.40;0.40;;;;;;;4.44;71.92;98095.25;5112740;28;20153;-86
2021/03/18 00:20:39;;;;;;;0.20;0.20;;;;;;;4.35;72.10;98083.22;5112364;28;20055;-86
2021/03/18 00:23:05;;;;;;;0.20;0.20;;;;;;;4.34;71.92;98082.44;5112721;28;20035;-87
2021/03/18 00:25:32;;;;;;;0.80;0.70;;;;;;;4.17;71.71;98049.88;5113802;28;20034;-87
2021/03/18 00:27:58;;;;;;;0.30;0.30;;;;;;;4.43;72.07;98095.63;5112541;28;20051;-85
2021/03/18 00:30:25;;;;;;;0.30;0.30;;;;;;;4.22;71.51;98052.91;5112472;28;20544;-85
2021/03/18 00:32:51;;;;;;;0.40;0.40;;;;;;;4.44;71.60;98089.00;5112469;28;20081;-86
2021/03/18 00:35:19;;;;;;;0.30;0.30;;;;;;;4.48;70.88;98086.97;5113293;28;20072;-87
2021/03/18 00:37:45;;;;;;;0.30;0.30;;;;;;;4.30;71.13;98061.81;5112286;28;20085;-86
2021/03/18 00:40:30;;;;;;;0.22;0.22;;;;;;;4.47;70.85;98093.63;5112347;28;20115;-87
2021/03/18 00:43:16;;;;;;;0.32;0.32;;;;;;;4.47;70.76;98086.19;5116528;28;20024;-86
2021/03/18 00:45:44;;;;;;;0.40;0.40;;;;;;;4.51;71.03;98097.09;5117086;28;20031;-87
2021/03/18 00:48:11;;;;;;;0.20;0.20;;;;;;;4.27;71.15;98073.59;5117509;28;20100;-86
2021/03/18 00:50:41;;;;;;;0.25;0.25;;;;;;;4.29;70.95;98063.00;5116412;28;20023;-87
2021/03/18 00:53:09;;;;;;;0.73;0.73;;;;;;;4.26;70.55;98072.81;5116782;28;20032;-86
2021/03/18 00:55:35;;;;;;;0.30;0.30;;;;;;;4.50;70.94;98104.53;5116321;28;20027;-87
2021/03/18 00:58:00;;;;;;;0.47;0.47;;;;;;;4.04;70.71;98025.81;5116359;28;20061;-88
2021/03/18 01:00:47;;;;;;;0.65;0.63;;;;;;;4.40;71.16;98080.06;5116096;28;20024;-87
2021/03/18 01:03:13;;;;;;;0.30;0.30;;;;;;;4.48;70.28;98092.44;5116023;28;20031;-88
2021/03/18 01:06:14;;;;;;;0.30;0.30;;;;;;;4.42;70.37;98089.38;5116196;28;20042;-87
2021/03/18 01:08:40;;;;;;;0.60;0.60;;;;;;;4.45;70.40;98096.00;5115810;28;20044;-87
2021/03/18 01:11:08;;;;;;;0.32;0.32;;;;;;;4.47;70.73;98099.88;5115796;28;20027;-88
2021/03/18 01:13:35;;;;;;;1.15;1.15;;;;;;;4.22;70.63;98063.09;5115964;28;20066;-87
2021/03/18 01:16:07;;;;;;;0.20;0.20;;;;;;;4.33;70.58;98080.94;5115959;28;20028;-88
2021/03/18 01:18:40;;;;;;;0.32;0.32;;;;;;;4.45;70.38;98096.00;5116179;28;20027;-88
2021/03/18 01:21:07;;;;;;;0.40;0.40;;;;;;;4.45;70.19;98109.69;5115661;28;20047;-88
2021/03/18 01:23:33;;;;;;;0.65;0.65;;;;;;;4.36;69.74;98090.25;5115697;28;20058;-88
2021/03/18 01:25:58;;;;;;;0.20;0.20;;;;;;;4.29;70.05;98085.66;5117414;28;20089;-87
2021/03/18 01:28:25;;;;;;;0.73;0.73;;;;;;;4.25;69.48;98059.53;5115613;28;20132;-87
2021/03/18 01:30:52;;;;;;;0.60;0.60;;;;;;;4.25;69.01;98056.81;5115259;28;20038;-88
2021/03/18 01:33:18;;;;;;;0.82;0.82;;;;;;;4.37;68.65;98098.06;5115473;28;20027;-86
2021/03/18 01:35:43;;;;;;;0.90;0.85;;;;;;;4.50;68.19;98090.09;5115540;28;20126;-87
2021/03/18 01:38:08;;;;;;;0.35;0.35;;;;;;;4.46;67.90;98089.38;5115558;28;20498;-88
2021/03/18 01:40:34;;;;;;;0.60;0.60;;;;;;;4.60;67.75;98122.00;5116186;28;20027;-87
2021/03/18 01:43:00;;;;;;;0.40;0.40;;;;;;;4.60;68.06;98113.00;5116053;28;20066;-86
2021/03/18 01:45:25;;;;;;;0.40;0.40;;;;;;;4.27;68.31;98068.13;5115333;28;20467;-85
2021/03/18 01:47:54;;;;;;;0.30;0.30;;;;;;;4.59;68.21;98116.91;5115114;28;20080;-86
2021/03/18 01:50:23;;;;;;;0.20;0.20;;;;;;;4.41;67.68;98098.00;5115377;28;20034;-87
2021/03/18 01:52:48;;;;;;;0.77;0.77;;;;;;;4.58;67.23;98123.59;5114761;28;20448;-87
2021/03/18 01:55:26;;;;;;;0.85;0.50;;;;;;;4.56;68.13;98121.28;5115211;28;20114;-86
2021/03/18 01:57:52;;;;;;;0.60;0.60;;;;;;;4.50;68.58;98125.66;5115425;28;20028;-88
2021/03/18 02:00:19;;;;;;;2.30;1.27;;;;;;;4.25;69.06;98089.63;5114979;28;20050;-88
2021/03/18 02:02:44;;;;;;;0.30;0.30;;;;;;;4.33;69.22;98127.41;5115447;28;20502;-87
2021/03/18 02:05:10;;;;;;;2.20;0.73;;;;;;;4.35;69.44;98127.75;5114912;28;20027;-88
2021/03/18 02:07:36;;;;;;;0.35;0.35;;;;;;;4.37;68.83;98125.41;5115412;28;20027;-87
2021/03/18 02:10:03;;;;;;;0.20;0.20;;;;;;;4.18;68.83;98086.97;5114876;28;20388;-88
2021/03/18 02:12:28;;;;;;;0.20;0.20;;;;;;;4.44;68.95;98135.47;5114861;28;20031;-87
2021/03/18 02:14:54;;;;;;;0.20;0.20;;;;;;;4.45;68.45;98143.28;5115131;28;20027;-88
2021/03/18 02:17:28;;;;;;;0.30;0.30;;;;;;;4.45;68.57;98139.78;5115105;28;20061;-88
2021/03/18 02:20:18;;;;;;;1.33;1.27;;;;;;;4.48;69.13;98147.16;5114708;28;20055;-88
2021/03/18 02:22:56;;;;;;;0.20;0.20;;;;;;;4.28;69.01;98119.63;5114802;28;20042;-87
2021/03/18 02:25:31;;;;;;;0.20;0.20;;;;;;;4.42;69.26;98138.63;5114610;28;20043;-87
2021/03/18 02:28:29;;;;;;;0.20;0.20;;;;;;;4.52;69.34;98163.53;5115391;28;20506;-87
2021/03/18 02:31:11;;;;;;;0.20;0.20;;;;;;;4.30;69.98;98114.53;5114913;28;20028;-86
2021/03/18 02:33:40;;;;;;;0.20;0.20;;;;;;;4.47;69.95;98162.00;5114234;28;20035;-85
2021/03/18 02:36:20;;;;;;;0.35;0.35;;;;;;;4.36;69.95;98148.47;5114940;28;20076;-87
2021/03/18 02:39:09;;;;;;;0.40;0.40;;;;;;;4.32;70.62;98142.25;5114882;28;20030;-86
2021/03/18 02:41:44;;;;;;;0.43;0.43;;;;;;;4.55;70.27;98143.56;5114731;28;20023;-86
2021/03/18 02:44:15;;;;;;;0.50;0.50;;;;;;;4.49;70.49;98159.66;5114288;28;20031;-87
2021/03/18 02:46:42;;;;;;;0.45;0.45;;;;;;;4.48;70.50;98171.75;5114717;28;20087;-87
2021/03/18 02:49:09;;;;;;;0.30;0.30;;;;;;;4.26;70.03;98129.44;5114275;28;20443;-87
2021/03/18 02:51:36;;;;;;;0.52;0.52;;;;;;;4.40;69.80;98154.66;5114042;28;20016;-87
2021/03/18 02:54:08;;;;;;;0.68;0.68;;;;;;;4.46;69.90;98168.69;5113957;28;20036;-89
2021/03/18 02:56:39;;;;;;;0.40;0.40;;;;;;;4.41;69.12;98160.91;5114517;28;20020;-88
2021/03/18 02:59:06;;;;;;;0.20;0.20;;;;;;;4.40;68.94;98167.59;5113638;28;20032;-86
2021/03/18 03:01:33;;;;;;;0.27;0.27;;;;;;;4.45;69.02;98158.91;5114030;28;20474;-88
2021/03/18 03:04:00;;;;;;;0.30;0.30;;;;;;;4.47;68.53;98171.00;5113231;28;20475;-88
2021/03/18 03:06:28;;;;;;;0.20;0.20;;;;;;;4.38;68.98;98159.00;5113793;28;20027;-88
2021/03/18 03:08:54;;;;;;;;;;;;;;;4.50;69.08;98177.63;5114446;28;20023;-89
2021/03/18 03:11:24;;;;;;;0.30;0.30;;;;;;;4.20;69.76;98137.31;5113553;28;19918;-86
2021/03/18 03:13:51;;;;;;;0.70;0.65;;;;;;;4.33;69.54;98168.44;5115026;28;20035;-85
2021/03/18 03:16:20;;;;;;;0.30;0.30;;;;;;;4.27;69.88;98158.34;5113456;28;20479;-88
2021/03/18 03:18:47;;;;;;;0.57;0.57;;;;;;;4.23;69.78;98149.38;5113467;28;20031;-86
2021/03/18 03:21:15;;;;;;;0.20;0.20;;;;;;;4.22;70.15;98156.06;5113253;28;20028;-84
2021/03/18 03:23:42;;;;;;;0.20;0.20;;;;;;;4.41;70.48;98182.78;5113927;28;20097;-87
2021/03/18 03:26:09;;;;;;;0.30;0.30;;;;;;;4.26;70.14;98178.66;5112950;28;20035;-85
2021/03/18 03:28:36;;;;;;;0.85;0.82;;;;;;;4.30;71.03;98184.88;5113757;28;20042;-85
2021/03/18 03:31:02;;;;;;;0.20;0.20;;;;;;;4.01;71.41;98141.44;5113744;28;20107;-84
2021/03/18 03:33:29;;;;;;;0.20;0.20;;;;;;;4.33;70.37;98184.84;5113186;28;20119;-84
2021/03/18 03:35:58;;;;;;;0.30;0.30;;;;;;;4.24;71.16;98183.75;5113231;28;20508;-87
2021/03/18 03:38:24;;;;;;;0.30;0.30;;;;;;;3.98;71.13;98125.03;5113072;28;20023;-87
2021/03/18 03:40:52;;;;;;;0.45;0.45;;;;;;;3.94;70.73;98122.38;5112942;28;20120;-85
2021/03/18 03:43:19;;;;;;;0.20;0.20;;;;;;;4.22;70.80;98172.47;5113291;28;20035;-86
2021/03/18 03:45:46;;;;;;;0.47;0.43;;;;;;;4.32;70.68;98185.25;5113036;28;20020;-85
2021/03/18 03:48:12;;;;;;;1.83;1.67;;;;;;;4.30;70.88;98193.06;5113547;28;20024;-85
2021/03/18 03:50:38;;;;;;;0.70;0.70;;;;;;;4.20;70.99;98180.28;5112955;28;20285;-85
2021/03/18 03:53:15;;;;;;;0.50;0.50;;;;;;;4.26;70.94;98200.53;5112929;28;20035;-86
2021/03/18 03:55:47;;;;;;;0.20;0.20;;;;;;;4.29;70.32;98208.69;5113452;28;20035;-88
2021/03/18 03:58:30;;;;;;;0.20;0.20;;;;;;;4.16;68.99;98163.91;5112552;28;20035;-88
2021/03/18 04:01:00;;;;;;;0.30;0.30;;;;;;;4.16;68.94;98160.44;5112754;28;20054;-89
2021/03/18 04:03:26;;;;;;;0.52;0.52;;;;;;;4.40;68.86;98208.59;5113016;28;20034;-87
2021/03/18 04:05:56;;;;;;;0.20;0.20;;;;;;;4.24;68.74;98172.81;5112844;28;20419;-88
2021/03/18 04:08:24;;;;;;;0.20;0.20;;;;;;;4.48;67.47;98221.00;5113004;28;20047;-88
2021/03/18 04:10:52;;;;;;;0.30;0.30;;;;;;;4.46;67.64;98198.78;5112742;28;20031;-86
2021/03/18 04:13:18;;;;;;;;;;;;;;;4.53;68.18;98208.81;5113177;28;20035;-87
2021/03/18 04:15:45;;;;;;;0.63;0.63;;;;;;;4.39;68.74;98196.88;5112426;28;19912;-88
2021/03/18 04:18:11;;;;;;;0.50;0.50;;;;;;;4.30;68.78;98193.06;5112423;28;20491;-87
2021/03/18 04:20:39;;;;;;;0.35;0.35;;;;;;;4.23;70.31;98168.53;5112404;28;20476;-87
2021/03/18 04:23:07;;;;;;;1.57;1.47;;;;;;;4.43;69.65;98221.44;5112601;28;20065;-88
2021/03/18 04:25:34;;;;;;;0.32;0.32;;;;;;;4.29;68.81;98189.56;5113339;28;20277;-86
2021/03/18 04:28:00;;;;;;;0.65;0.65;;;;;;;4.18;69.67;98177.19;5112993;28;20027;-87
2021/03/18 04:30:28;;;;;;;0.30;0.30;;;;;;;4.16;69.42;98177.56;5113616;28;20059;-87
2021/03/18 04:32:55;;;;;;;0.52;0.52;;;;;;;4.19;70.38;98195.91;5112395;28;20072;-87
2021/03/18 04:35:21;;;;;;;0.20;0.20;;;;;;;4.09;70.96;98180.41;5112505;28;20036;-87
2021/03/18 04:37:47;;;;;;;0.55;0.55;;;;;;;4.32;70.52;98221.56;5112344;28;20430;-87
2021/03/18 04:40:16;;;;;;;0.80;0.80;;;;;;;4.30;70.68;98217.69;5112523;28;20084;-87
2021/03/18 04:42:42;;;;;;;0.30;0.30;;;;;;;4.23;71.04;98215.00;5112321;28;20023;-88
2021/03/18 04:45:10;;;;;;;0.75;0.75;;;;;;;3.99;70.84;98195.72;5112694;28;20108;-88
2021/03/18 04:47:39;;;;;;;1.10;1.10;;;;;;;4.10;71.69;98237.38;5112235;28;20024;-88
2021/03/18 04:50:07;;;;;;;0.20;0.20;;;;;;;4.13;71.53;98237.75;5112436;28;20107;-87
2021/03/18 04:52:33;;;;;;;0.47;0.47;;;;;;;4.14;71.55;98236.59;5112217;28;20114;-88
2021/03/18 04:55:00;;;;;;;0.30;0.30;;;;;;;4.00;71.20;98204.69;5112534;28;20038;-86
2021/03/18 04:57:27;;;;;;;0.20;0.20;;;;;;;4.26;70.92;98230.63;5113686;28;20032;-86
2021/03/18 04:59:56;;;;;;;0.30;0.30;;;;;;;4.29;70.83;98251.66;5112212;28;20037;-88
2021/03/18 05:02:25;;;;;;;0.43;0.43;;;;;;;4.18;70.45;98221.69;5112132;28;20027;-86
2021/03/18 05:04:53;;;;;;;0.57;0.57;;;;;;;4.39;70.34;98231.66;5112461;28;20394;-85
2021/03/18 05:07:20;;;;;;;0.20;0.20;;;;;;;4.34;69.07;98215.69;5112287;28;20513;-87
2021/03/18 05:09:46;;;;;;;0.30;0.30;;;;;;;4.43;68.30;98196.84;5112038;28;20032;-85
2021/03/18 05:12:12;;;;;;;1.10;1.10;;;;;;;4.67;68.89;98255.97;5112658;28;20262;-87
2021/03/18 05:14:39;;;;;;;0.20;0.20;;;;;;;4.69;69.74;98253.63;5112005;28;20073;-87
2021/03/18 05:17:04;;;;;;;0.32;0.32;;;;;;;4.64;70.29;98245.06;5112345;28;20077;-87
2021/03/18 05:19:31;;;;;;;0.30;0.30;;;;;;;4.70;69.94;98255.13;5111636;28;20483;-88
2021/03/18 05:21:57;;;;;;;0.30;0.30;;;;;;;4.72;70.20;98252.00;5112062;28;20039;-88
2021/03/18 05:24:23;;;;;;;0.20;0.20;;;;;;;4.72;69.67;98261.00;5112142;28;20085;-88
2021/03/18 05:26:49;;;;;;;0.20;0.20;;;;;;;4.71;69.47;98250.44;5114133;28;20024;-88
2021/03/18 05:29:16;;;;;;;0.52;0.52;;;;;;;4.64;69.43;98234.13;5115940;28;20028;-89
2021/03/18 05:31:44;;;;;;;0.20;0.20;;;;;;;4.65;68.83;98217.28;5114983;28;20027;-87
2021/03/18 05:34:12;;;;;;;0.20;0.20;;;;;;;5.00;68.27;98250.91;5115058;28;20123;-84
2021/03/18 05:36:38;;;;;;;0.20;0.20;;;;;;;5.15;66.69;98264.00;5115605;28;20035;-85
2021/03/18 05:39:05;;;;;;;0.25;0.25;;;;;;;5.16;67.99;98273.00;5114848;28;20542;-84
2021/03/18 05:41:30;;;;;;;0.20;0.20;;;;;;;5.30;67.85;98272.81;5114890;28;20122;-84
2021/03/18 05:43:56;;;;;;;0.20;0.20;;;;;;;5.41;67.50;98270.72;5114929;28;20055;-85
2021/03/18 05:46:23;;;;;;;0.45;0.45;;;;;;;5.59;67.18;98282.19;5115470;28;20034;-83
2021/03/18 05:48:48;;;;;;;0.20;0.20;;;;;;;5.80;66.11;98285.78;5114654;28;20027;-85
2021/03/18 05:51:18;;;;;;;0.40;0.40;;;;;;;5.83;65.02;98254.81;5114776;28;20050;-84
2021/03/18 05:53:46;;;;;;;1.10;1.10;;;;;;;5.76;63.64;98263.94;5114421;28;20517;-85
2021/03/18 05:56:17;;;;;;;0.20;0.20;;;;;;;6.19;60.89;98291.50;5114566;28;20546;-84
2021/03/18 05:58:43;;;;;;;2.72;0.63;;;;;;;6.57;60.38;98299.47;5114448;28;20035;-82
2021/03/18 06:01:10;;;;;;;0.20;0.20;;;;;;;7.09;59.90;98291.41;5114758;28;20023;-83
2021/03/18 06:03:36;;;;;;;0.30;0.30;;;;;;;7.60;58.25;98293.47;5115156;28;20097;-82
2021/03/18 06:06:04;;;;;;;0.40;0.40;;;;;;;7.87;57.57;98285.00;5114185;28;20475;-81
2021/03/18 06:08:36;;;;;;;0.20;0.20;;;;;;;7.92;56.16;98273.50;5114283;28;20491;-80
2021/03/18 06:11:03;;;;;;;0.20;0.20;;;;;;;8.45;55.29;98305.25;5114371;28;20452;-81
2021/03/18 06:13:29;;;;;;;0.20;0.20;;;;;;;8.16;56.36;98249.34;5114125;28;20372;-80
2021/03/18 06:15:55;;;;;;;0.20;0.20;;;;;;;8.41;55.36;98320.31;5113896;28;20081;-80
2021/03/18 06:18:21;;;;;;;1.00;1.00;;;;;;;8.26;55.86;98319.09;5113811;28;20554;-81
2021/03/18 06:20:51;;;;;;;0.57;0.57;;;;;;;7.59;57.29;98313.16;5113324;28;20047;-84
2021/03/18 06:23:18;;;;;;;0.75;0.75;;;;;;;7.16;58.74;98303.03;5114074;28;20039;-84
2021/03/18 06:25:43;;;;;;;0.22;0.22;;;;;;;7.27;59.34;98311.84;5113470;28;20043;-84
2021/03/18 06:28:10;;;;;;;1.25;0.95;;;;;;;7.40;58.14;98325.72;5113995;28;20027;-83
2021/03/18 06:30:41;;;;;;;0.50;0.50;;;;;;;7.01;59.81;98268.03;5114105;28;20023;-83
2021/03/18 06:33:22;;;;;;;0.30;0.30;;;;;;;7.65;57.70;98298.47;5113916;28;20023;-84
2021/03/18 06:35:47;;;;;;;0.20;0.20;;;;;;;7.87;56.82;98337.25;5115004;28;20027;-83
2021/03/18 06:38:13;;;;;;;0.20;0.20;;;;;;;7.63;57.50;98303.63;5113673;28;20034;-83
2021/03/18 06:40:44;;;;;;;0.32;0.32;;;;;;;7.94;56.71;98331.63;5113597;28;20031;-89
2021/03/18 06:43:10;;;;;;;1.42;0.88;;;;;;;8.16;55.28;98343.66;5113629;28;20054;-82
2021/03/18 06:45:42;;;;;;;0.65;0.65;;;;;;;7.60;55.61;98287.19;5113712;28;20504;-83
2021/03/18 06:48:15;;;;;;;0.50;0.50;;;;;;;7.59;57.88;98313.94;5114121;28;20027;-85
2021/03/18 06:50:47;;;;;;;0.30;0.30;;;;;;;7.63;57.14;98303.63;5113981;28;20479;-85
2021/03/18 06:53:20;;;;;;;0.43;0.43;;;;;;;7.12;58.20;98309.78;5113761;28;20024;-85
2021/03/18 06:55:46;;;;;;;0.45;0.45;;;;;;;6.84;59.48;98338.56;5113188;28;20031;-87
2021/03/18 06:58:21;;;;;;;0.20;0.20;;;;;;;6.21;62.04;98299.31;5112426;28;20031;-87
2021/03/18 07:00:51;;;;;;;0.28;0.28;;;;;;;6.52;63.43;98326.19;5112334;28;20125;-87
2021/03/18 07:03:38;;;;;;;0.22;0.22;;;;;;;6.70;62.16;98306.66;5112835;28;20391;-86
2021/03/18 07:06:28;;;;;;;0.30;0.30;;;;;;;6.36;61.42;98320.59;5113168;28;20122;-87
2021/03/18 07:09:05;;;;;;;1.10;0.63;;;;;;;6.44;62.69;98321.25;5113774;28;20032;-87
2021/03/18 07:11:36;;;;;;;1.15;1.08;;;;;;;6.86;60.19;98345.22;5113954;28;20028;-88
2021/03/18 07:14:01;;;;;;;0.30;0.30;;;;;;;6.83;59.90;98350.75;5113748;28;20072;-85
2021/03/18 07:16:40;;;;;;;0.20;0.20;;;;;;;6.47;60.13;98348.63;5113717;28;20118;-87
2021/03/18 07:19:06;;;;;;;0.30;0.30;;;;;;;6.44;61.09;98324.78;5114130;28;20194;-87
2021/03/18 07:21:40;;;;;;;0.40;0.40;;;;;;;7.09;59.31;98354.59;5113479;28;20063;-84
2021/03/18 07:24:26;;;;;;;0.30;0.30;;;;;;;7.55;58.86;98364.66;5113378;28;20060;-86
2021/03/18 07:26:53;;;;;;;0.60;0.60;;;;;;;7.11;59.05;98332.97;5113529;28;20615;-86
2021/03/18 07:29:21;;;;;;;0.40;0.40;;;;;;;6.75;59.43;98311.66;5113118;28;20031;-87
2021/03/18 07:31:49;;;;;;;0.20;0.20;;;;;;;6.66;59.72;98319.69;5113198;28;20020;-86
2021/03/18 07:34:15;;;;;;;0.30;0.30;;;;;;;6.75;59.07;98354.84;5113235;28;20452;-84
2021/03/18 07:36:41;;;;;;;0.50;0.50;;;;;;;6.87;59.72;98359.72;5113444;28;20031;-86
2021/03/18 07:39:08;;;;;;;0.28;0.28;;;;;;;7.16;59.94;98371.72;5113056;28;20032;-85
2021/03/18 07:41:34;;;;;;;0.20;0.20;;;;;;;7.07;59.08;98326.75;5112818;28;20035;-85
2021/03/18 07:44:00;;;;;;;0.20;0.20;;;;;;;7.28;58.24;98371.09;5112820;28;20035;-86
2021/03/18 07:46:26;;;;;;;0.30;0.30;;;;;;;7.31;58.92;98345.50;5112936;28;20380;-84
2021/03/18 07:48:56;;;;;;;0.20;0.20;;;;;;;7.21;58.56;98302.53;5113102;28;20472;-87
2021/03/18 07:51:24;;;;;;;0.50;0.50;;;;;;;7.68;56.55;98340.81;5112039;28;20023;-85
2021/03/18 07:53:53;;;;;;;0.13;0.13;;;;;;;7.38;57.66;98366.59;5112809;28;20035;-86
2021/03/18 07:56:19;;;;;;;0.20;0.20;;;;;;;7.46;57.89;98378.22;5112795;28;20035;-85
2021/03/18 07:58:47;;;;;;;0.57;0.57;;;;;;;7.44;58.15;98375.09;5112856;28;20024;-84
2021/03/18 08:01:28;;;;;;;0.30;0.30;;;;;;;7.07;57.49;98373.47;5113831;28;20019;-86
2021/03/18 08:03:53;;;;;;;0.20;0.20;;;;;;;6.90;58.94;98364.34;5112734;28;20495;-87
2021/03/18 08:06:52;;;;;;;2.35;2.15;;;;;;;7.12;58.60;98370.22;5112583;28;20151;-88
2021/03/18 08:09:38;;;;;;;0.20;0.20;;;;;;;7.01;58.40;98359.44;5068681;28;20108;-85
2021/03/18 08:12:04;;;;;;;0.40;0.40;;;;;;;7.13;57.84;98338.81;5112607;28;20030;-85
2021/03/18 08:14:30;;;;;;;0.43;0.43;;;;;;;7.13;57.76;98358.81;5112419;28;20123;-88
2021/03/18 08:16:56;;;;;;;1.40;1.40;;;;;;;7.45;57.31;98371.16;5112550;28;20467;-85
2021/03/18 08:19:21;;;;;;;0.50;0.50;;;;;;;7.41;58.38;98332.78;5112078;28;20059;-87
2021/03/18 08:21:52;;;;;;;0.20;0.20;;;;;;;7.40;56.23;98349.69;5112522;28;20027;-87
2021/03/18 08:24:20;;;;;;;0.50;0.50;;;;;;;7.22;57.45;98347.28;5112866;28;20123;-86
2021/03/18 08:27:02;;;;;;;0.20;0.20;;;;;;;7.38;56.86;98350.09;5112430;28;20115;-86
2021/03/18 08:29:45;;;;;;;0.52;0.52;;;;;;;7.63;57.31;98380.59;5112466;28;20105;-85
2021/03/18 08:32:26;;;;;;;0.20;0.20;;;;;;;7.48;58.30;98367.56;5112437;28;20085;-85
2021/03/18 08:34:59;;;;;;;6.90;1.10;;;;;;;8.02;57.54;98384.47;5112692;28;20494;-87
2021/03/18 08:37:42;;;;;;;0.20;0.20;;;;;;;7.83;54.86;98358.59;5113092;28;20414;-86
2021/03/18 08:40:13;;;;;;;0.20;0.20;;;;;;;8.07;55.45;98362.75;5113340;28;20030;-86
2021/03/18 08:42:40;;;;;;;0.22;0.22;;;;;;;8.17;55.00;98364.47;5112664;28;20076;-85
2021/03/18 08:45:11;;;;;;;0.95;0.95;;;;;;;8.35;56.32;98385.34;5112154;28;20034;-85
2021/03/18 08:47:36;;;;;;;0.52;0.52;;;;;;;8.53;53.56;98366.41;5112073;28;20034;-85
2021/03/18 08:50:04;;;;;;;0.50;0.50;;;;;;;8.89;53.97;98356.06;5112139;28;20031;-84
2021/03/18 08:52:38;;;;;;;0.20;0.20;;;;;;;8.92;54.47;98382.72;5112067;28;20103;-85
2021/03/18 08:55:06;;;;;;;0.43;0.43;;;;;;;9.31;53.99;98375.41;5112551;28;20027;-84
2021/03/18 08:57:33;;;;;;;0.50;0.50;;;;;;;8.72;53.34;98379.31;5111923;28;20027;-85
2021/03/18 09:00:16;;;;;;;1.90;1.75;;;;;;;9.14;52.74;98398.72;5111872;28;20427;-85
2021/03/18 09:02:42;;;;;;;0.95;0.95;;;;;;;9.44;51.96;98384.50;5114269;28;20027;-84
2021/03/18 09:05:16;;;;;;;1.30;1.30;;;;;;;9.71;50.09;98376.63;5115819;28;20023;-81
2021/03/18 09:07:43;;;;;;;2.72;2.15;;;;;;;9.90;52.08;98366.59;5116440;28;20024;-81
2021/03/18 09:10:16;;;;;;;0.85;0.85;;;;;;;9.60;48.92;98384.44;5115571;28;20023;-83
2021/03/18 09:12:46;;;;;;;1.27;1.17;;;;;;;9.77;49.31;98376.84;5115594;28;20108;-82
2021/03/18 09:15:38;;;;;;;0.47;0.47;;;;;;;9.29;49.77;98364.03;5115644;28;20027;-83
2021/03/18 09:18:30;;;;;;;0.82;0.82;;;;;;;9.02;51.12;98367.13;5112199;28;20619;-87
2021/03/18 09:20:55;;;;;;;0.20;0.20;;;;;;;9.49;51.73;98386.72;5116743;28;20529;-85
2021/03/18 09:23:24;;;;;;;0.85;0.85;;;;;;;9.69;49.92;98348.72;5115348;28;20054;-83
2021/03/18 09:25:51;;;;;;;0.20;0.20;;;;;;;9.90;48.57;98387.91;5115494;28;20033;-81
2021/03/18 09:28:18;;;;;;;0.52;0.52;;;;;;;10.01;49.01;98377.31;5114978;28;20076;-81
2021/03/18 09:30:50;;;;;;;1.42;1.27;;;;;;;10.23;49.01;98372.75;5115390;28;20058;-81
2021/03/18 09:33:39;;;;;;;1.13;1.13;;;;;;;9.87;49.77;98370.25;5116516;28;20034;-84
2021/03/18 09:36:14;;;;;;;5.30;1.58;;;;;;;9.67;49.00;98364.91;5115472;28;20115;-84
2021/03/18 09:38:41;;;;;;;2.05;1.88;;;;;;;10.05;49.61;98389.81;5115139;28;20114;-82
2021/03/18 09:41:19;;;;;;;1.10;0.85;;;;;;;9.84;49.13;98346.28;5115301;28;20032;-82
2021/03/18 09:43:44;;;;;;;3.63;2.47;;;;;;;10.02;47.34;98393.44;5115395;28;20035;-82
2021/03/18 09:46:10;;;;;;;1.13;0.75;;;;;;;10.14;48.65;98372.59;5115115;28;20039;-82
2021/03/18 09:48:38;;;;;;;1.52;1.27;;;;;;;10.06;46.80;98363.00;5115111;28;20020;-82
2021/03/18 09:51:17;;;;;;;9.75;4.40;;;;;;;9.73;47.53;98370.66;5115028;28;20038;-84
2021/03/18 09:53:46;;;;;;;3.10;3.00;;;;;;;9.31;49.51;98369.88;5115534;28;20034;-86
2021/03/18 09:56:15;;;;;;;0.40;0.40;;;;;;;8.75;51.74;98389.47;5115066;28;20498;-85
2021/03/18 09:58:42;;;;;;;1.75;1.23;;;;;;;8.43;51.73;98337.19;5114845;28;20055;-86
2021/03/18 10:01:16;;;;;;;1.17;1.08;;;;;;;8.44;53.43;98352.47;5115145;28;20086;-87
2021/03/18 10:03:51;;;;;;;0.88;0.88;;;;;;;8.83;53.60;98370.78;5114924;28;20042;-85
2021/03/18 10:06:24;;;;;;;9.60;2.55;;;;;;;8.61;51.90;98361.50;5115994;27;20487;-85
2021/03/18 10:08:49;;;;;;;7.78;3.00;;;;;;;8.29;52.50;98352.03;5115033;28;20024;-88
2021/03/18 10:11:15;;;;;;;1.05;0.98;;;;;;;8.64;51.89;98369.69;5114600;28;20042;-85
2021/03/18 10:13:42;;;;;;;4.63;3.50;;;;;;;9.21;50.73;98368.22;5114301;28;20027;-84
2021/03/18 10:16:09;;;;;;;1.85;1.73;;;;;;;9.51;51.73;98395.34;5114432;28;20051;-84
2021/03/18 10:18:36;;;;;;;1.20;1.15;;;;;;;9.24;50.94;98381.09;5114497;28;20019;-85
2021/03/18 10:21:03;;;;;;;8.20;2.15;;;;;;;8.98;49.53;98386.50;5115829;28;20056;-85
2021/03/18 10:23:29;;;;;;;6.03;5.28;;;;;;;9.55;48.83;98387.72;5114501;28;20031;-85
2021/03/18 10:25:55;;;;;;;5.78;1.88;;;;;;;9.39;49.12;98385.81;5114289;28;20036;-86
2021/03/18 10:28:21;;;;;;;3.60;3.30;;;;;;;9.63;47.67;98391.84;5114402;28;20052;-85
2021/03/18 10:30:50;;;;;;;4.60;4.00;;;;;;;9.45;49.48;98335.63;5114215;28;20066;-84
2021/03/18 10:33:16;;;;;;;;;;;;;;;10.10;47.80;98397.53;5114658;28;20411;-84
2021/03/18 10:35:52;;;;;;;4.35;3.95;;;;;;;8.82;49.44;98371.97;5114345;28;19911;-85
2021/03/18 10:38:28;;;;;;;5.97;5.15;;;;;;;9.07;50.83;98357.56;5114407;28;20121;-85
2021/03/18 10:40:55;;;;;;;3.53;3.08;;;;;;;9.79;47.54;98385.47;5114062;28;20115;-85
2021/03/18 10:43:24;;;;;;;8.95;8.00;;;;;;;9.73;51.51;98356.88;5113933;28;20091;-84
2021/03/18 10:45:52;;;;;;;6.95;6.28;;;;;;;9.67;49.62;98381.47;5114281;28;20027;-84
2021/03/18 10:48:21;;;;;;;1.92;1.85;;;;;;;9.85;48.07;98369.13;5113853;28;20027;-84
2021/03/18 10:50:47;;;;;;;4.03;3.72;;;;;;;9.56;47.20;98341.63;5113917;28;20023;-84
2021/03/18 10:53:14;;;;;;;0.20;0.20;;;;;;;9.78;48.86;98387.44;5113755;28;20523;-85
2021/03/18 10:55:49;;;;;;;0.30;0.30;;;;;;;10.12;47.75;98383.31;5113637;28;20066;-83
2021/03/18 10:58:17;;;;;;;5.63;3.60;;;;;;;10.12;48.09;98362.00;5115178;28;20471;-82
2021/03/18 11:00:44;;;;;;;0.52;0.52;;;;;;;9.82;47.67;98385.34;5113517;28;20032;-85
2021/03/18 11:03:12;;;;;;;2.25;1.02;;;;;;;10.01;49.70;98385.59;5113530;28;20032;-82
2021/03/18 11:05:42;;;;;;;2.13;1.90;;;;;;;9.57;48.56;98349.47;5113486;28;20030;-83
2021/03/18 11:08:09;;;;;;;1.10;1.00;;;;;;;9.06;50.66;98337.50;5113462;28;20122;-86
2021/03/18 11:10:38;;;;;;;1.02;1.00;;;;;;;9.70;48.65;98369.56;5113595;28;20027;-85
2021/03/18 11:13:09;;;;;;;6.55;4.25;;;;;;;9.63;48.56;98355.22;5113287;28;20024;-83
2021/03/18 11:15:52;;;;;;;5.15;2.47;;;;;;;9.67;48.89;98331.81;5113166;28;20024;-82
2021/03/18 11:18:25;;;;;;;2.42;2.33;;;;;;;9.80;47.46;98375.97;5113499;28;20414;-85
2021/03/18 11:20:50;;;;;;;2.65;2.53;;;;;;;9.79;47.29;98386.25;5112848;28;20047;-83
2021/03/18 11:23:23;;;;;;;0.60;0.60;;;;;;;10.00;49.26;98375.78;5113116;28;20475;-81
2021/03/18 11:25:55;;;;;;;0.57;0.57;;;;;;;9.65;48.41;98320.44;5112395;28;20039;-84
2021/03/18 11:28:20;;;;;;;1.80;1.67;;;;;;;9.80;47.82;98353.91;5113372;28;20023;-81
2021/03/18 11:30:46;;;;;;;0.30;0.30;;;;;;;9.23;46.93;98379.56;5113072;28;20490;-85
2021/03/18 11:33:16;;;;;;;0.68;0.68;;;;;;;9.53;49.73;98372.81;5112839;28;20024;-84
2021/03/18 11:35:48;;;;;;;0.30;0.30;;;;;;;9.75;47.35;98377.31;5112776;28;20081;-83
2021/03/18 11:38:15;;;;;;;0.20;0.20;;;;;;;9.60;49.29;98343.06;5112949;28;20122;-82
2021/03/18 11:40:42;;;;;;;0.95;0.95;;;;;;;9.30;49.29;98324.22;5112715;28;20131;-84
2021/03/18 11:43:08;;;;;;;0.30;0.30;;;;;;;9.25;50.58;98328.31;5112887;28;20055;-86
2021/03/18 11:45:34;;;;;;;0.50;0.50;;;;;;;9.50;49.37;98330.34;5112755;28;20035;-85
2021/03/18 11:48:02;;;;;;;0.60;0.60;;;;;;;9.45;48.69;98358.47;5113193;28;20034;-84
2021/03/18 11:50:28;;;;;;;1.00;0.98;;;;;;;9.65;48.03;98345.25;5112649;28;20437;-83
2021/03/18 11:52:54;;;;;;;0.50;0.50;;;;;;;9.15;48.70;98323.09;5112613;28;20034;-84